sensor_id;sensor_type;location;lat;lon;timestamp;temperature;humidity
70826;SHT31;58446;41.490;22.098;2024-01-15T00:01:56;-0.89;72.76
70826;SHT31;58446;41.490;22.098;2024-01-15T00:04:21;-0.84;72.50
70826;SHT31;58446;41.490;22.098;2024-01-15T00:06:48;-0.91;72.24
70826;SHT31;58446;41.490;22.098;2024-01-15T00:09:14;-0.86;72.40
70826;SHT31;58446;41.490;22.098;2024-01-15T00:11:40;-0.78;72.58
70826;SHT31;58446;41.490;22.098;2024-01-15T00:14:05;-0.95;72.09
70826;SHT31;58446;41.490;22.098;2024-01-15T00:16:31;-0.99;72.15
70826;SHT31;58446;41.490;22.098;2024-01-15T00:18:58;-0.79;72.62
70826;SHT31;58446;41.490;22.098;2024-01-15T00:21:25;-0.76;72.36
70826;SHT31;58446;41.490;22.098;2024-01-15T00:23:50;-0.93;71.24
70826;SHT31;58446;41.490;22.098;2024-01-15T00:26:16;-1.23;70.92
70826;SHT31;58446;41.490;22.098;2024-01-15T00:28:42;-1.19;73.24
70826;SHT31;58446;41.490;22.098;2024-01-15T00:31:08;-1.21;73.43
70826;SHT31;58446;41.490;22.098;2024-01-15T00:33:34;-1.35;71.94
70826;SHT31;58446;41.490;22.098;2024-01-15T00:35:59;-1.32;73.30
70826;SHT31;58446;41.490;22.098;2024-01-15T00:38:25;-1.35;72.74
70826;SHT31;58446;41.490;22.098;2024-01-15T00:40:51;-1.26;71.52
70826;SHT31;58446;41.490;22.098;2024-01-15T00:43:16;-1.61;72.90
70826;SHT31;58446;41.490;22.098;2024-01-15T00:45:44;-1.91;72.88
70826;SHT31;58446;41.490;22.098;2024-01-15T00:48:10;-1.95;74.11
70826;SHT31;58446;41.490;22.098;2024-01-15T00:50:36;-1.84;73.49
70826;SHT31;58446;41.490;22.098;2024-01-15T00:53:01;-1.79;74.42
70826;SHT31;58446;41.490;22.098;2024-01-15T00:55:28;-1.63;74.89
70826;SHT31;58446;41.490;22.098;2024-01-15T00:57:54;-1.57;74.84
70826;SHT31;58446;41.490;22.098;2024-01-15T01:00:20;-1.36;74.30
70826;SHT31;58446;41.490;22.098;2024-01-15T01:02:46;-1.20;73.40
70826;SHT31;58446;41.490;22.098;2024-01-15T01:05:11;-1.15;73.33
70826;SHT31;58446;41.490;22.098;2024-01-15T01:07:37;-1.13;72.96
70826;SHT31;58446;41.490;22.098;2024-01-15T01:10:03;-1.47;70.84
70826;SHT31;58446;41.490;22.098;2024-01-15T01:12:29;-1.87;71.99
70826;SHT31;58446;41.490;22.098;2024-01-15T01:14:55;-2.10;73.48
70826;SHT31;58446;41.490;22.098;2024-01-15T01:17:22;-2.01;74.35
70826;SHT31;58446;41.490;22.098;2024-01-15T01:19:48;-2.38;75.30
70826;SHT31;58446;41.490;22.098;2024-01-15T01:22:14;-2.42;76.07
70826;SHT31;58446;41.490;22.098;2024-01-15T01:24:40;-2.74;76.60
70826;SHT31;58446;41.490;22.098;2024-01-15T01:27:05;-2.73;77.47
70826;SHT31;58446;41.490;22.098;2024-01-15T01:29:31;-2.42;77.47
70826;SHT31;58446;41.490;22.098;2024-01-15T01:31:57;-2.25;77.17
70826;SHT31;58446;41.490;22.098;2024-01-15T01:34:22;-2.03;76.70
70826;SHT31;58446;41.490;22.098;2024-01-15T01:36:48;-1.87;75.74
70826;SHT31;58446;41.490;22.098;2024-01-15T01:39:14;-1.81;75.38
70826;SHT31;58446;41.490;22.098;2024-01-15T01:41:40;-1.53;75.03
70826;SHT31;58446;41.490;22.098;2024-01-15T01:44:05;-1.47;74.62
70826;SHT31;58446;41.490;22.098;2024-01-15T01:46:32;-1.43;74.34
70826;SHT31;58446;41.490;22.098;2024-01-15T01:48:59;-1.32;74.03
70826;SHT31;58446;41.490;22.098;2024-01-15T01:51:32;-1.15;73.24
70826;SHT31;58446;41.490;22.098;2024-01-15T01:53:58;-1.26;73.27
70826;SHT31;58446;41.490;22.098;2024-01-15T01:56:24;-1.43;72.55
70826;SHT31;58446;41.490;22.098;2024-01-15T01:58:50;-1.42;73.41
70826;SHT31;58446;41.490;22.098;2024-01-15T02:01:16;-1.39;73.33
70826;SHT31;58446;41.490;22.098;2024-01-15T02:03:43;-1.27;73.02
70826;SHT31;58446;41.490;22.098;2024-01-15T02:06:08;-1.42;73.33
70826;SHT31;58446;41.490;22.098;2024-01-15T02:08:34;-1.43;73.10
70826;SHT31;58446;41.490;22.098;2024-01-15T02:11:00;-1.57;73.20
70826;SHT31;58446;41.490;22.098;2024-01-15T02:13:26;-1.43;73.13
70826;SHT31;58446;41.490;22.098;2024-01-15T02:15:52;-1.44;72.71
70826;SHT31;58446;41.490;22.098;2024-01-15T02:18:17;-1.66;71.49
70826;SHT31;58446;41.490;22.098;2024-01-15T02:20:43;-1.81;71.82
70826;SHT31;58446;41.490;22.098;2024-01-15T02:23:11;-1.87;72.68
70826;SHT31;58446;41.490;22.098;2024-01-15T02:25:41;-1.95;74.06
70826;SHT31;58446;41.490;22.098;2024-01-15T02:28:12;-1.79;74.31
70826;SHT31;58446;41.490;22.098;2024-01-15T02:30:39;-1.70;74.35
70826;SHT31;58446;41.490;22.098;2024-01-15T02:33:06;-1.56;73.65
70826;SHT31;58446;41.490;22.098;2024-01-15T02:35:32;-1.72;72.56
70826;SHT31;58446;41.490;22.098;2024-01-15T02:37:58;-1.64;73.79
70826;SHT31;58446;41.490;22.098;2024-01-15T02:40:24;-1.77;73.64
70826;SHT31;58446;41.490;22.098;2024-01-15T02:42:50;-1.81;73.98
70826;SHT31;58446;41.490;22.098;2024-01-15T02:45:16;-1.89;73.77
70826;SHT31;58446;41.490;22.098;2024-01-15T02:47:42;-1.63;74.00
70826;SHT31;58446;41.490;22.098;2024-01-15T02:50:07;-1.64;73.48
70826;SHT31;58446;41.490;22.098;2024-01-15T02:52:33;-1.66;73.77
70826;SHT31;58446;41.490;22.098;2024-01-15T02:54:59;-1.66;74.02
70826;SHT31;58446;41.490;22.098;2024-01-15T02:57:24;-1.71;73.70
70826;SHT31;58446;41.490;22.098;2024-01-15T02:59:50;-1.82;74.48
70826;SHT31;58446;41.490;22.098;2024-01-15T03:02:16;-1.78;74.76
70826;SHT31;58446;41.490;22.098;2024-01-15T03:04:45;-1.71;74.85
70826;SHT31;58446;41.490;22.098;2024-01-15T03:07:11;-1.85;74.83
70826;SHT31;58446;41.490;22.098;2024-01-15T03:09:36;-1.98;75.63
70826;SHT31;58446;41.490;22.098;2024-01-15T03:12:02;-1.68;75.13
70826;SHT31;58446;41.490;22.098;2024-01-15T03:14:28;-1.57;74.84
70826;SHT31;58446;41.490;22.098;2024-01-15T03:16:54;-1.57;74.84
70826;SHT31;58446;41.490;22.098;2024-01-15T03:19:19;-1.58;74.84
70826;SHT31;58446;41.490;22.098;2024-01-15T03:21:45;-1.47;74.85
70826;SHT31;58446;41.490;22.098;2024-01-15T03:24:11;-1.42;74.74
70826;SHT31;58446;41.490;22.098;2024-01-15T03:26:36;-1.32;74.26
70826;SHT31;58446;41.490;22.098;2024-01-15T03:29:02;-1.30;73.61
70826;SHT31;58446;41.490;22.098;2024-01-15T03:31:28;-2.16;75.58
70826;SHT31;58446;41.490;22.098;2024-01-15T03:33:53;-1.72;75.43
70826;SHT31;58446;41.490;22.098;2024-01-15T03:36:19;-1.27;74.39
70826;SHT31;58446;41.490;22.098;2024-01-15T03:38:45;-1.12;73.44
70826;SHT31;58446;41.490;22.098;2024-01-15T03:41:10;-1.15;73.42
70826;SHT31;58446;41.490;22.098;2024-01-15T03:43:36;-1.07;73.39
70826;SHT31;58446;41.490;22.098;2024-01-15T03:46:02;-1.03;73.30
70826;SHT31;58446;41.490;22.098;2024-01-15T03:48:28;-1.25;73.73
70826;SHT31;58446;41.490;22.098;2024-01-15T03:50:54;-1.13;73.55
70826;SHT31;58446;41.490;22.098;2024-01-15T03:53:19;-0.96;73.30
70826;SHT31;58446;41.490;22.098;2024-01-15T03:55:45;-0.97;73.13
70826;SHT31;58446;41.490;22.098;2024-01-15T03:58:10;-0.97;72.76
70826;SHT31;58446;41.490;22.098;2024-01-15T04:00:36;-1.05;73.48
70826;SHT31;58446;41.490;22.098;2024-01-15T04:03:04;-0.95;72.99
70826;SHT31;58446;41.490;22.098;2024-01-15T04:05:29;-1.25;72.27
70826;SHT31;58446;41.490;22.098;2024-01-15T04:07:55;-1.25;74.20
70826;SHT31;58446;41.490;22.098;2024-01-15T04:10:21;-1.33;73.77
70826;SHT31;58446;41.490;22.098;2024-01-15T04:12:46;-1.10;73.61
70826;SHT31;58446;41.490;22.098;2024-01-15T04:15:12;-0.96;73.14
70826;SHT31;58446;41.490;22.098;2024-01-15T04:17:38;-1.33;73.55
70826;SHT31;58446;41.490;22.098;2024-01-15T04:20:04;-1.27;73.39
70826;SHT31;58446;41.490;22.098;2024-01-15T04:22:30;-1.29;74.03
70826;SHT31;58446;41.490;22.098;2024-01-15T04:24:56;-1.27;73.79
70826;SHT31;58446;41.490;22.098;2024-01-15T04:27:22;-1.07;73.39
70826;SHT31;58446;41.490;22.098;2024-01-15T04:29:47;-1.10;73.60
70826;SHT31;58446;41.490;22.098;2024-01-15T04:32:13;-1.21;73.49
70826;SHT31;58446;41.490;22.098;2024-01-15T04:34:39;-1.61;74.14
70826;SHT31;58446;41.490;22.098;2024-01-15T04:37:04;-1.70;74.84
70826;SHT31;58446;41.490;22.098;2024-01-15T04:39:30;-1.43;75.08
70826;SHT31;58446;41.490;22.098;2024-01-15T04:41:56;-1.32;74.54
70826;SHT31;58446;41.490;22.098;2024-01-15T04:44:22;-1.27;74.49
70826;SHT31;58446;41.490;22.098;2024-01-15T04:46:47;-1.29;74.10
70826;SHT31;58446;41.490;22.098;2024-01-15T04:49:13;-1.48;74.90
70826;SHT31;58446;41.490;22.098;2024-01-15T04:51:39;-1.40;74.97
70826;SHT31;58446;41.490;22.098;2024-01-15T04:54:04;-1.42;74.95
70826;SHT31;58446;41.490;22.098;2024-01-15T04:56:30;-1.78;75.73
70826;SHT31;58446;41.490;22.098;2024-01-15T04:58:56;-2.16;77.35
70826;SHT31;58446;41.490;22.098;2024-01-15T05:01:21;-2.26;78.12
70826;SHT31;58446;41.490;22.098;2024-01-15T05:03:47;-2.09;77.67
70826;SHT31;58446;41.490;22.098;2024-01-15T05:06:13;-1.58;76.74
70826;SHT31;58446;41.490;22.098;2024-01-15T05:08:38;-1.46;75.92
70826;SHT31;58446;41.490;22.098;2024-01-15T05:11:04;-1.56;76.45
70826;SHT31;58446;41.490;22.098;2024-01-15T05:13:30;-1.64;76.14
70826;SHT31;58446;41.490;22.098;2024-01-15T05:15:55;-1.48;76.43
70826;SHT31;58446;41.490;22.098;2024-01-15T05:18:21;-1.17;75.36
70826;SHT31;58446;41.490;22.098;2024-01-15T05:20:49;-1.00;74.70
70826;SHT31;58446;41.490;22.098;2024-01-15T05:23:15;-1.02;74.51
70826;SHT31;58446;41.490;22.098;2024-01-15T05:25:40;-1.12;75.16
70826;SHT31;58446;41.490;22.098;2024-01-15T05:28:06;-0.95;74.72
70826;SHT31;58446;41.490;22.098;2024-01-15T05:30:32;-0.92;74.64
70826;SHT31;58446;41.490;22.098;2024-01-15T05:32:57;-1.06;74.61
70826;SHT31;58446;41.490;22.098;2024-01-15T05:35:25;-0.97;74.46
70826;SHT31;58446;41.490;22.098;2024-01-15T05:37:51;-1.29;74.34
70826;SHT31;58446;41.490;22.098;2024-01-15T05:40:17;-1.15;75.14
70826;SHT31;58446;41.490;22.098;2024-01-15T05:42:42;-0.95;74.70
70826;SHT31;58446;41.490;22.098;2024-01-15T05:45:08;-0.89;74.50
70826;SHT31;58446;41.490;22.098;2024-01-15T05:47:34;-0.82;74.16
70826;SHT31;58446;41.490;22.098;2024-01-15T05:50:01;-0.69;73.52
70826;SHT31;58446;41.490;22.098;2024-01-15T05:52:27;-0.89;74.07
70826;SHT31;58446;41.490;22.098;2024-01-15T05:54:53;-1.17;74.69
70826;SHT31;58446;41.490;22.098;2024-01-15T05:57:18;-0.93;74.62
70826;SHT31;58446;41.490;22.098;2024-01-15T05:59:44;-0.92;74.28
70826;SHT31;58446;41.490;22.098;2024-01-15T06:02:11;-0.93;74.65
70826;SHT31;58446;41.490;22.098;2024-01-15T06:04:36;-1.06;74.60
70826;SHT31;58446;41.490;22.098;2024-01-15T06:07:02;-1.03;75.26
70826;SHT31;58446;41.490;22.098;2024-01-15T06:09:28;-1.05;75.07
70826;SHT31;58446;41.490;22.098;2024-01-15T06:11:54;-0.96;74.92
70826;SHT31;58446;41.490;22.098;2024-01-15T06:14:20;-0.82;74.68
70826;SHT31;58446;41.490;22.098;2024-01-15T06:16:46;-0.72;74.45
70826;SHT31;58446;41.490;22.098;2024-01-15T06:19:11;-0.69;73.91
70826;SHT31;58446;41.490;22.098;2024-01-15T06:21:37;-0.53;73.59
70826;SHT31;58446;41.490;22.098;2024-01-15T06:24:03;-0.44;73.46
70826;SHT31;58446;41.490;22.098;2024-01-15T06:26:29;-0.69;74.34
70826;SHT31;58446;41.490;22.098;2024-01-15T06:28:55;-0.53;73.84
70826;SHT31;58446;41.490;22.098;2024-01-15T06:31:21;-0.53;73.75
70826;SHT31;58446;41.490;22.098;2024-01-15T06:33:46;-0.71;74.18
70826;SHT31;58446;41.490;22.098;2024-01-15T06:36:14;-0.62;74.25
70826;SHT31;58446;41.490;22.098;2024-01-15T06:38:39;-0.71;74.43
70826;SHT31;58446;41.490;22.098;2024-01-15T06:41:05;-0.64;74.40
70826;SHT31;58446;41.490;22.098;2024-01-15T06:43:31;-0.45;73.83
70826;SHT31;58446;41.490;22.098;2024-01-15T06:45:58;-1.19;75.58
70826;SHT31;58446;41.490;22.098;2024-01-15T06:48:24;-1.19;76.30
70826;SHT31;58446;41.490;22.098;2024-01-15T06:50:49;-0.82;75.35
70826;SHT31;58446;41.490;22.098;2024-01-15T06:53:15;-0.61;74.60
70826;SHT31;58446;41.490;22.098;2024-01-15T06:55:40;-0.55;74.54
70826;SHT31;58446;41.490;22.098;2024-01-15T06:58:06;-0.51;74.18
70826;SHT31;58446;41.490;22.098;2024-01-15T07:00:32;-0.57;74.26
70826;SHT31;58446;41.490;22.098;2024-01-15T07:02:58;-0.64;74.69
70826;SHT31;58446;41.490;22.098;2024-01-15T07:05:24;-0.65;74.85
70826;SHT31;58446;41.490;22.098;2024-01-15T07:07:50;-0.66;75.03
70826;SHT31;58446;41.490;22.098;2024-01-15T07:10:16;-0.66;74.86
70826;SHT31;58446;41.490;22.098;2024-01-15T07:12:42;-0.53;74.57
70826;SHT31;58446;41.490;22.098;2024-01-15T07:15:08;-0.55;74.82
70826;SHT31;58446;41.490;22.098;2024-01-15T07:17:35;-0.54;74.67
70826;SHT31;58446;41.490;22.098;2024-01-15T07:20:01;-0.75;75.26
70826;SHT31;58446;41.490;22.098;2024-01-15T07:22:27;-0.85;75.57
70826;SHT31;58446;41.490;22.098;2024-01-15T07:24:53;-0.55;75.17
70826;SHT31;58446;41.490;22.098;2024-01-15T07:27:19;-0.37;74.48
70826;SHT31;58446;41.490;22.098;2024-01-15T07:29:45;-0.42;74.31
70826;SHT31;58446;41.490;22.098;2024-01-15T07:32:11;-0.45;74.52
70826;SHT31;58446;41.490;22.098;2024-01-15T07:34:37;-0.37;74.52
70826;SHT31;58446;41.490;22.098;2024-01-15T07:37:03;-0.31;74.12
70826;SHT31;58446;41.490;22.098;2024-01-15T07:39:29;-0.37;74.36
70826;SHT31;58446;41.490;22.098;2024-01-15T07:41:56;-0.35;74.51
70826;SHT31;58446;41.490;22.098;2024-01-15T07:44:21;-0.44;74.89
70826;SHT31;58446;41.490;22.098;2024-01-15T07:46:47;-0.48;75.22
70826;SHT31;58446;41.490;22.098;2024-01-15T07:49:13;-0.44;75.28
70826;SHT31;58446;41.490;22.098;2024-01-15T07:51:39;-0.41;75.06
70826;SHT31;58446;41.490;22.098;2024-01-15T07:54:11;-0.27;74.87
70826;SHT31;58446;41.490;22.098;2024-01-15T07:57:02;-0.48;76.02
70826;SHT31;58446;41.490;22.098;2024-01-15T07:59:31;-0.18;74.56
70826;SHT31;58446;41.490;22.098;2024-01-15T08:01:58;-0.11;74.34
70826;SHT31;58446;41.490;22.098;2024-01-15T08:04:24;-0.16;74.46
70826;SHT31;58446;41.490;22.098;2024-01-15T08:06:50;-0.23;74.92
70826;SHT31;58446;41.490;22.098;2024-01-15T08:09:16;-0.17;74.81
70826;SHT31;58446;41.490;22.098;2024-01-15T08:11:44;-0.28;75.23
70826;SHT31;58446;41.490;22.098;2024-01-15T08:14:10;-0.33;75.84
70826;SHT31;58446;41.490;22.098;2024-01-15T08:16:37;-0.24;75.86
70826;SHT31;58446;41.490;22.098;2024-01-15T08:19:03;-0.24;75.69
70826;SHT31;58446;41.490;22.098;2024-01-15T08:21:29;-0.33;76.21
70826;SHT31;58446;41.490;22.098;2024-01-15T08:24:02;-0.31;76.63
70826;SHT31;58446;41.490;22.098;2024-01-15T08:26:28;-0.14;75.94
70826;SHT31;58446;41.490;22.098;2024-01-15T08:28:54;-0.16;76.35
70826;SHT31;58446;41.490;22.098;2024-01-15T08:31:20;-0.07;75.56
70826;SHT31;58446;41.490;22.098;2024-01-15T08:33:46;0.01;75.35
70826;SHT31;58446;41.490;22.098;2024-01-15T08:36:12;0.00;75.55
70826;SHT31;58446;41.490;22.098;2024-01-15T08:38:38;0.03;75.50
70826;SHT31;58446;41.490;22.098;2024-01-15T08:41:04;0.00;75.99
70826;SHT31;58446;41.490;22.098;2024-01-15T08:43:30;0.08;75.43
70826;SHT31;58446;41.490;22.098;2024-01-15T08:45:58;-0.13;77.00
70826;SHT31;58446;41.490;22.098;2024-01-15T08:48:24;-0.06;76.74
70826;SHT31;58446;41.490;22.098;2024-01-15T08:50:53;-0.10;77.12
70826;SHT31;58446;41.490;22.098;2024-01-15T08:53:19;0.17;75.37
70826;SHT31;58446;41.490;22.098;2024-01-15T08:55:44;0.05;76.67
70826;SHT31;58446;41.490;22.098;2024-01-15T08:58:10;0.01;77.15
70826;SHT31;58446;41.490;22.098;2024-01-15T09:00:36;0.25;75.29
70826;SHT31;58446;41.490;22.098;2024-01-15T09:03:02;0.21;75.89
70826;SHT31;58446;41.490;22.098;2024-01-15T09:05:28;0.19;75.55
70826;SHT31;58446;41.490;22.098;2024-01-15T09:07:54;0.29;75.12
70826;SHT31;58446;41.490;22.098;2024-01-15T09:10:20;0.21;75.88
70826;SHT31;58446;41.490;22.098;2024-01-15T09:12:46;0.18;76.46
70826;SHT31;58446;41.490;22.098;2024-01-15T09:15:12;0.29;75.92
70826;SHT31;58446;41.490;22.098;2024-01-15T09:17:38;0.28;75.61
70826;SHT31;58446;41.490;22.098;2024-01-15T09:20:04;0.37;75.23
70826;SHT31;58446;41.490;22.098;2024-01-15T09:22:31;0.48;74.96
70826;SHT31;58446;41.490;22.098;2024-01-15T09:24:57;0.55;74.63
70826;SHT31;58446;41.490;22.098;2024-01-15T09:27:22;0.72;73.66
70826;SHT31;58446;41.490;22.098;2024-01-15T09:29:48;0.62;73.69
70826;SHT31;58446;41.490;22.098;2024-01-15T09:32:14;0.61;74.04
70826;SHT31;58446;41.490;22.098;2024-01-15T09:34:41;0.56;74.20
70826;SHT31;58446;41.490;22.098;2024-01-15T09:37:06;0.64;73.99
70826;SHT31;58446;41.490;22.098;2024-01-15T09:39:32;0.75;73.54
70826;SHT31;58446;41.490;22.098;2024-01-15T09:41:58;0.80;72.89
70826;SHT31;58446;41.490;22.098;2024-01-15T09:44:24;0.72;73.50
70826;SHT31;58446;41.490;22.098;2024-01-15T09:46:52;0.72;73.38
70826;SHT31;58446;41.490;22.098;2024-01-15T09:49:18;0.80;73.14
70826;SHT31;58446;41.490;22.098;2024-01-15T09:51:44;0.66;73.82
70826;SHT31;58446;41.490;22.098;2024-01-15T09:54:10;0.77;73.76
70826;SHT31;58446;41.490;22.098;2024-01-15T09:56:39;0.89;73.12
70826;SHT31;58446;41.490;22.098;2024-01-15T09:59:05;1.01;72.99
70826;SHT31;58446;41.490;22.098;2024-01-15T10:01:32;1.10;72.99
70826;SHT31;58446;41.490;22.098;2024-01-15T10:03:58;1.28;73.52
70826;SHT31;58446;41.490;22.098;2024-01-15T10:06:27;1.61;72.22
70826;SHT31;58446;41.490;22.098;2024-01-15T10:08:53;1.79;71.29
70826;SHT31;58446;41.490;22.098;2024-01-15T10:11:19;1.85;70.11
70826;SHT31;58446;41.490;22.098;2024-01-15T10:13:46;1.91;70.55
70826;SHT31;58446;41.490;22.098;2024-01-15T10:16:12;2.16;70.26
70826;SHT31;58446;41.490;22.098;2024-01-15T10:18:38;2.12;70.33
70826;SHT31;58446;41.490;22.098;2024-01-15T10:21:06;2.13;70.28
70826;SHT31;58446;41.490;22.098;2024-01-15T10:23:33;1.71;71.11
70826;SHT31;58446;41.490;22.098;2024-01-15T10:26:00;1.51;71.50
70826;SHT31;58446;41.490;22.098;2024-01-15T10:28:30;1.47;71.78
70826;SHT31;58446;41.490;22.098;2024-01-15T10:30:57;1.46;71.89
70826;SHT31;58446;41.490;22.098;2024-01-15T10:33:24;1.44;72.00
70826;SHT31;58446;41.490;22.098;2024-01-15T10:35:57;1.38;72.89
70826;SHT31;58446;41.490;22.098;2024-01-15T10:38:24;1.68;72.96
70826;SHT31;58446;41.490;22.098;2024-01-15T10:40:54;1.88;72.12
70826;SHT31;58446;41.490;22.098;2024-01-15T10:43:20;2.25;72.00
70826;SHT31;58446;41.490;22.098;2024-01-15T10:45:47;2.39;70.38
70826;SHT31;58446;41.490;22.098;2024-01-15T10:48:13;2.29;69.87
70826;SHT31;58446;41.490;22.098;2024-01-15T10:50:39;2.25;69.89
70826;SHT31;58446;41.490;22.098;2024-01-15T10:53:05;2.39;70.08
70826;SHT31;58446;41.490;22.098;2024-01-15T10:55:35;2.39;69.57
70826;SHT31;58446;41.490;22.098;2024-01-15T10:58:02;2.50;70.84
70826;SHT31;58446;41.490;22.098;2024-01-15T11:00:29;2.67;69.04
70826;SHT31;58446;41.490;22.098;2024-01-15T11:02:55;2.46;69.44
70826;SHT31;58446;41.490;22.098;2024-01-15T11:05:21;2.56;69.59
70826;SHT31;58446;41.490;22.098;2024-01-15T11:07:54;2.73;69.01
70826;SHT31;58446;41.490;22.098;2024-01-15T11:16:11;2.71;69.98
70826;SHT31;58446;41.490;22.098;2024-01-15T11:21:24;2.91;69.37
70826;SHT31;58446;41.490;22.098;2024-01-15T11:23:56;2.87;68.99
70826;SHT31;58446;41.490;22.098;2024-01-15T11:26:33;2.95;69.52
70826;SHT31;58446;41.490;22.098;2024-01-15T11:29:01;3.08;69.05
70826;SHT31;58446;41.490;22.098;2024-01-15T11:34:07;2.85;68.20
70826;SHT31;58446;41.490;22.098;2024-01-15T11:39:40;2.91;68.49
70826;SHT31;58446;41.490;22.098;2024-01-15T11:42:09;2.91;68.24
70826;SHT31;58446;41.490;22.098;2024-01-15T11:44:34;2.85;68.46
70826;SHT31;58446;41.490;22.098;2024-01-15T11:47:02;2.91;69.29
70826;SHT31;58446;41.490;22.098;2024-01-15T11:50:00;2.92;68.62
70826;SHT31;58446;41.490;22.098;2024-01-15T11:52:32;2.94;68.48
70826;SHT31;58446;41.490;22.098;2024-01-15T11:57:53;2.84;68.28
70826;SHT31;58446;41.490;22.098;2024-01-15T12:00:20;2.98;68.43
70826;SHT31;58446;41.490;22.098;2024-01-15T12:02:48;3.05;68.48
70826;SHT31;58446;41.490;22.098;2024-01-15T12:05:16;3.15;68.06
70826;SHT31;58446;41.490;22.098;2024-01-15T12:07:43;3.16;68.54
70826;SHT31;58446;41.490;22.098;2024-01-15T12:10:14;3.18;67.91
70826;SHT31;58446;41.490;22.098;2024-01-15T12:15:09;3.35;67.44
70826;SHT31;58446;41.490;22.098;2024-01-15T12:17:35;3.23;67.81
70826;SHT31;58446;41.490;22.098;2024-01-15T12:20:04;3.20;68.27
70826;SHT31;58446;41.490;22.098;2024-01-15T12:22:30;3.32;69.22
70826;SHT31;58446;41.490;22.098;2024-01-15T12:24:55;3.42;69.05
70826;SHT31;58446;41.490;22.098;2024-01-15T12:27:23;3.42;67.99
70826;SHT31;58446;41.490;22.098;2024-01-15T12:29:49;3.44;67.46
70826;SHT31;58446;41.490;22.098;2024-01-15T12:32:15;3.48;67.17
70826;SHT31;58446;41.490;22.098;2024-01-15T12:34:41;3.46;67.11
70826;SHT31;58446;41.490;22.098;2024-01-15T12:37:09;3.40;67.56
70826;SHT31;58446;41.490;22.098;2024-01-15T12:39:36;3.43;67.38
70826;SHT31;58446;41.490;22.098;2024-01-15T12:42:02;3.43;67.39
70826;SHT31;58446;41.490;22.098;2024-01-15T12:44:29;3.43;67.56
70826;SHT31;58446;41.490;22.098;2024-01-15T12:46:55;3.43;67.49
70826;SHT31;58446;41.490;22.098;2024-01-15T12:49:21;3.40;67.34
70826;SHT31;58446;41.490;22.098;2024-01-15T12:51:53;3.40;67.75
70826;SHT31;58446;41.490;22.098;2024-01-15T12:54:19;3.44;67.40
70826;SHT31;58446;41.490;22.098;2024-01-15T12:56:45;3.52;66.96
70826;SHT31;58446;41.490;22.098;2024-01-15T12:59:10;3.86;65.10
70826;SHT31;58446;41.490;22.098;2024-01-15T13:01:36;4.52;62.44
70826;SHT31;58446;41.490;22.098;2024-01-15T13:04:02;5.24;60.06
70826;SHT31;58446;41.490;22.098;2024-01-15T13:06:28;5.56;59.42
70826;SHT31;58446;41.490;22.098;2024-01-15T13:08:54;5.86;58.90
70826;SHT31;58446;41.490;22.098;2024-01-15T13:11:19;6.19;58.18
70826;SHT31;58446;41.490;22.098;2024-01-15T13:13:45;6.38;58.38
70826;SHT31;58446;41.490;22.098;2024-01-15T13:16:11;6.29;59.05
70826;SHT31;58446;41.490;22.098;2024-01-15T13:18:37;6.34;59.15
70826;SHT31;58446;41.490;22.098;2024-01-15T13:21:02;6.29;59.41
70826;SHT31;58446;41.490;22.098;2024-01-15T13:23:28;6.43;59.57
70826;SHT31;58446;41.490;22.098;2024-01-15T13:25:54;6.50;59.44
70826;SHT31;58446;41.490;22.098;2024-01-15T13:28:20;6.33;60.36
70826;SHT31;58446;41.490;22.098;2024-01-15T13:30:46;6.44;60.61
70826;SHT31;58446;41.490;22.098;2024-01-15T13:33:13;6.37;60.95
70826;SHT31;58446;41.490;22.098;2024-01-15T13:35:38;6.01;62.39
70826;SHT31;58446;41.490;22.098;2024-01-15T13:38:04;6.09;62.75
70826;SHT31;58446;41.490;22.098;2024-01-15T13:40:30;6.27;62.61
70826;SHT31;58446;41.490;22.098;2024-01-15T13:42:55;6.36;62.65
70826;SHT31;58446;41.490;22.098;2024-01-15T13:45:21;6.30;62.81
70826;SHT31;58446;41.490;22.098;2024-01-15T13:47:49;6.38;62.97
70826;SHT31;58446;41.490;22.098;2024-01-15T13:50:14;6.17;63.01
70826;SHT31;58446;41.490;22.098;2024-01-15T13:52:40;6.14;64.62
70826;SHT31;58446;41.490;22.098;2024-01-15T13:55:06;6.30;64.27
70826;SHT31;58446;41.490;22.098;2024-01-15T13:57:34;6.37;64.02
70826;SHT31;58446;41.490;22.098;2024-01-15T13:59:59;6.36;64.08
70826;SHT31;58446;41.490;22.098;2024-01-15T14:02:25;6.50;64.44
70826;SHT31;58446;41.490;22.098;2024-01-15T14:04:51;6.43;64.98
70826;SHT31;58446;41.490;22.098;2024-01-15T14:07:16;6.47;65.47
70826;SHT31;58446;41.490;22.098;2024-01-15T14:09:42;6.50;65.87
70826;SHT31;58446;41.490;22.098;2024-01-15T14:12:08;6.47;65.78
70826;SHT31;58446;41.490;22.098;2024-01-15T14:14:33;6.44;66.24
70826;SHT31;58446;41.490;22.098;2024-01-15T14:16:59;6.41;66.58
70826;SHT31;58446;41.490;22.098;2024-01-15T14:19:25;6.53;66.66
70826;SHT31;58446;41.490;22.098;2024-01-15T14:21:51;6.50;66.35
70826;SHT31;58446;41.490;22.098;2024-01-15T14:24:16;6.53;66.28
70826;SHT31;58446;41.490;22.098;2024-01-15T14:26:42;6.55;66.56
70826;SHT31;58446;41.490;22.098;2024-01-15T14:29:08;6.50;67.12
70826;SHT31;58446;41.490;22.098;2024-01-15T14:31:34;6.45;67.01
70826;SHT31;58446;41.490;22.098;2024-01-15T14:34:00;6.53;67.25
70826;SHT31;58446;41.490;22.098;2024-01-15T14:36:27;6.57;67.12
70826;SHT31;58446;41.490;22.098;2024-01-15T14:38:53;6.51;66.92
70826;SHT31;58446;41.490;22.098;2024-01-15T14:41:19;6.54;66.86
70826;SHT31;58446;41.490;22.098;2024-01-15T14:43:44;6.55;67.17
70826;SHT31;58446;41.490;22.098;2024-01-15T14:46:10;6.54;67.07
70826;SHT31;58446;41.490;22.098;2024-01-15T14:48:36;6.54;66.76
70826;SHT31;58446;41.490;22.098;2024-01-15T14:51:02;6.54;67.22
70826;SHT31;58446;41.490;22.098;2024-01-15T14:53:28;6.55;67.27
70826;SHT31;58446;41.490;22.098;2024-01-15T14:55:54;6.50;67.53
70826;SHT31;58446;41.490;22.098;2024-01-15T14:58:20;6.54;67.70
70826;SHT31;58446;41.490;22.098;2024-01-15T15:00:45;6.53;67.66
70826;SHT31;58446;41.490;22.098;2024-01-15T15:03:11;6.53;67.39
70826;SHT31;58446;41.490;22.098;2024-01-15T15:05:39;6.44;67.65
70826;SHT31;58446;41.490;22.098;2024-01-15T15:08:05;6.38;67.81
70826;SHT31;58446;41.490;22.098;2024-01-15T15:10:35;6.36;68.22
70826;SHT31;58446;41.490;22.098;2024-01-15T15:13:01;6.27;68.14
70826;SHT31;58446;41.490;22.098;2024-01-15T15:15:30;6.24;67.91
70826;SHT31;58446;41.490;22.098;2024-01-15T15:17:56;6.14;68.02
70826;SHT31;58446;41.490;22.098;2024-01-15T15:20:21;5.98;68.06
70826;SHT31;58446;41.490;22.098;2024-01-15T15:22:47;5.95;68.20
70826;SHT31;58446;41.490;22.098;2024-01-15T15:25:12;5.68;68.71
70826;SHT31;58446;41.490;22.098;2024-01-15T15:27:38;5.59;68.62
70826;SHT31;58446;41.490;22.098;2024-01-15T15:30:06;5.51;68.19
70826;SHT31;58446;41.490;22.098;2024-01-15T15:32:32;5.28;68.11
70826;SHT31;58446;41.490;22.098;2024-01-15T15:34:58;5.20;68.15
70826;SHT31;58446;41.490;22.098;2024-01-15T15:37:24;5.16;68.62